createdAt,value
2023-04-02T00:01:27.174Z,21.87
2023-04-02T00:06:40.311Z,21.89
2023-04-02T00:11:44.539Z,21.88
2023-04-02T00:16:47.370Z,21.76
2023-04-02T00:21:51.915Z,21.75
2023-04-02T00:26:55.044Z,21.75
2023-04-02T00:31:57.816Z,21.68
2023-04-02T00:37:02.108Z,21.69
2023-04-02T00:42:05.816Z,21.69
2023-04-02T00:47:11.338Z,21.69
2023-04-02T00:52:16.607Z,21.65
2023-04-02T00:57:23.264Z,21.58
2023-04-02T01:02:28.681Z,21.54
2023-04-02T01:07:47.670Z,21.61
2023-04-02T01:12:55.389Z,21.48
2023-04-02T01:18:07.968Z,21.34
2023-04-02T01:23:14.366Z,21.36
2023-04-02T01:28:19.670Z,21.32
2023-04-02T01:33:25.765Z,21.26
2023-04-02T01:38:29.939Z,21.20
2023-04-02T01:43:34.458Z,21.14
2023-04-02T01:48:38.826Z,21.04
2023-04-02T01:53:41.608Z,20.98
2023-04-02T01:58:44.498Z,20.89
2023-04-02T02:03:48.904Z,20.87
2023-04-02T02:08:53.571Z,20.79
2023-04-02T02:13:57.786Z,20.72
2023-04-02T02:19:03.042Z,20.69
2023-04-02T02:24:06.366Z,20.64
2023-04-02T02:29:09.116Z,20.63
2023-04-02T02:34:17.421Z,20.54
2023-04-02T02:39:23.018Z,20.53
2023-04-02T02:44:27.635Z,20.45
2023-04-02T02:49:33.706Z,20.41
2023-04-02T02:54:40.216Z,20.35
2023-04-02T02:59:43.625Z,20.33
2023-04-02T03:04:49.453Z,20.28
2023-04-02T03:09:54.905Z,20.23
2023-04-02T03:14:59.686Z,20.19
2023-04-02T03:20:06.415Z,20.16
2023-04-02T03:25:19.165Z,20.11
2023-04-02T03:30:28.805Z,20.06
2023-04-02T03:35:37.185Z,20.03
2023-04-02T03:40:41.866Z,20.00
2023-04-02T03:45:46.889Z,19.96
2023-04-02T03:50:53.460Z,19.88
2023-04-02T03:55:56.487Z,19.88
2023-04-02T04:01:01.010Z,19.87
2023-04-02T04:06:07.207Z,19.84
2023-04-02T04:11:11.361Z,19.80
2023-04-02T04:16:15.946Z,19.78
2023-04-02T04:21:29.937Z,19.76
2023-04-02T04:26:42.389Z,19.73
2023-04-02T04:31:49.552Z,19.71
2023-04-02T04:36:56.373Z,19.69
2023-04-02T04:42:04.298Z,19.67
2023-04-02T04:47:09.102Z,19.66
2023-04-02T04:52:16.471Z,19.62
2023-04-02T04:57:27.015Z,19.61
2023-04-02T05:02:31.426Z,19.58
2023-04-02T05:07:37.615Z,19.55
2023-04-02T05:12:43.005Z,19.55
2023-04-02T05:17:51.380Z,19.48
2023-04-02T05:22:58.618Z,19.41
2023-04-02T05:28:04.619Z,19.49
2023-04-02T05:33:18.112Z,19.43
2023-04-02T05:38:24.749Z,19.39
2023-04-02T05:43:27.753Z,19.37
2023-04-02T05:48:32.129Z,19.37
2023-04-02T05:53:37.341Z,19.36
2023-04-02T05:58:44.051Z,19.34
2023-04-02T06:04:00.065Z,19.32
2023-04-02T06:09:08.779Z,19.32
2023-04-02T06:14:12.482Z,19.31
2023-04-02T06:19:18.208Z,19.31
2023-04-02T06:24:24.240Z,19.28
2023-04-02T06:29:29.583Z,19.26
2023-04-02T06:34:33.427Z,19.25
2023-04-02T06:39:42.565Z,19.25
2023-04-02T06:44:45.660Z,19.24
2023-04-02T06:50:07.669Z,19.27
2023-04-02T06:55:27.415Z,19.27
2023-04-02T07:00:36.473Z,19.27
2023-04-02T07:05:42.451Z,19.46
2023-04-02T07:10:47.989Z,19.67
2023-04-02T07:15:52.188Z,19.80
2023-04-02T07:20:55.670Z,18.10
2023-04-02T07:26:02.149Z,18.78
2023-04-02T07:31:04.990Z,19.31
2023-04-02T07:36:08.017Z,19.62
2023-04-02T07:41:12.322Z,19.85
2023-04-02T07:46:16.840Z,20.01
2023-04-02T07:51:20.773Z,20.11
2023-04-02T07:56:25.530Z,20.21
2023-04-02T08:01:29.389Z,20.26
2023-04-02T08:06:32.223Z,20.31
2023-04-02T08:11:36.560Z,20.36
2023-04-02T08:16:49.092Z,20.40
2023-04-02T08:21:52.665Z,20.43
2023-04-02T08:26:57.379Z,20.43
2023-04-02T08:32:00.261Z,20.45
2023-04-02T08:37:03.224Z,20.45
2023-04-02T08:42:08.484Z,20.48
2023-04-02T08:47:11.849Z,20.49
2023-04-02T08:52:20.942Z,20.51
2023-04-02T08:57:29.818Z,20.48
2023-04-02T09:02:36.089Z,20.53
2023-04-02T09:07:39.321Z,20.51
2023-04-02T09:12:43.673Z,20.49
2023-04-02T09:17:53.592Z,20.50
2023-04-02T09:22:58.820Z,20.52
2023-04-02T09:28:04.151Z,20.53
2023-04-02T09:33:07.779Z,20.53
2023-04-02T09:38:21.661Z,20.58
2023-04-02T09:43:28.063Z,20.58
2023-04-02T09:48:32.143Z,20.63
2023-04-02T09:53:36.694Z,20.65
2023-04-02T09:58:41.743Z,20.66
2023-04-02T10:03:44.630Z,20.67
2023-04-02T10:08:48.034Z,20.71
2023-04-02T10:13:54.574Z,20.72
2023-04-02T10:18:58.863Z,20.79
2023-04-02T10:24:02.857Z,20.78
2023-04-02T10:29:15.652Z,20.85
2023-04-02T10:34:21.283Z,20.78
2023-04-02T10:39:25.576Z,20.76
2023-04-02T10:44:36.930Z,20.77
2023-04-02T10:49:43.139Z,20.77
2023-04-02T10:54:47.888Z,20.76
2023-04-02T10:59:54.336Z,20.79
2023-04-02T11:04:57.521Z,20.83
2023-04-02T11:10:01.312Z,20.83
2023-04-02T11:15:10.446Z,20.86
2023-04-02T11:20:59.393Z,20.86
2023-04-02T11:26:31.104Z,21.00
2023-04-02T11:31:35.682Z,20.85
2023-04-02T11:37:04.456Z,20.93
2023-04-02T11:42:16.424Z,20.95
2023-04-02T11:47:21.777Z,20.96
2023-04-02T11:52:39.639Z,20.98
2023-04-02T11:57:52.097Z,20.97
2023-04-02T12:03:06.888Z,20.99
2023-04-02T12:08:22.766Z,20.97
2023-04-02T12:13:52.903Z,20.98
2023-04-02T12:18:57.250Z,20.99
2023-04-02T12:24:00.416Z,21.01
2023-04-02T12:29:16.639Z,21.01
2023-04-02T12:34:21.717Z,21.00
2023-04-02T12:39:26.736Z,20.99
2023-04-02T12:44:31.836Z,21.02
2023-04-02T12:49:37.643Z,21.01
2023-04-02T12:54:45.952Z,21.04
2023-04-02T12:59:48.894Z,21.03
2023-04-02T13:04:54.021Z,21.02
2023-04-02T13:09:58.004Z,21.02
2023-04-02T13:15:01.946Z,20.98
2023-04-02T13:20:29.641Z,20.62
2023-04-02T13:25:33.458Z,19.26
2023-04-02T13:30:36.610Z,18.58
2023-04-02T13:35:41.271Z,19.17
2023-04-02T13:40:44.252Z,19.51
2023-04-02T13:45:48.092Z,19.79
2023-04-02T13:50:52.443Z,20.04
2023-04-02T13:55:55.539Z,20.22
2023-04-02T14:00:58.399Z,20.35
2023-04-02T14:06:04.728Z,20.44
2023-04-02T14:11:15.145Z,20.51
2023-04-02T14:16:33.343Z,20.57
2023-04-02T14:21:43.028Z,20.63
2023-04-02T14:27:04.280Z,20.66
2023-04-02T14:32:08.051Z,20.68
2023-04-02T14:37:17.846Z,20.69
2023-04-02T14:42:22.858Z,20.72
2023-04-02T14:47:29.411Z,20.74
2023-04-02T14:52:35.011Z,20.80
2023-04-02T14:57:38.568Z,20.83
2023-04-02T15:02:42.352Z,20.83
2023-04-02T15:07:48.136Z,20.85
2023-04-02T15:12:50.880Z,20.85
2023-04-02T15:17:53.723Z,20.84
2023-04-02T15:23:01.980Z,20.85
2023-04-02T15:28:16.071Z,20.85
2023-04-02T15:33:41.207Z,20.91
2023-04-02T15:38:45.956Z,20.91
2023-04-02T15:43:53.424Z,20.93
2023-04-02T15:49:06.711Z,20.89
2023-04-02T15:54:19.158Z,20.91
2023-04-02T15:59:36.016Z,20.91
2023-04-02T16:04:43.284Z,20.93
2023-04-02T16:09:49.618Z,21.00
2023-04-02T16:14:52.411Z,21.13
2023-04-02T16:19:57.452Z,21.10
2023-04-02T16:25:03.522Z,21.10
2023-04-02T16:30:26.816Z,21.15
2023-04-02T16:40:57.150Z,21.17
2023-04-02T16:46:11.652Z,21.13
2023-04-02T16:51:19.462Z,21.17
2023-04-02T16:56:28.712Z,21.16
2023-04-02T17:01:36.030Z,21.16
2023-04-02T17:06:42.330Z,21.20
2023-04-02T17:11:49.711Z,21.21
2023-04-02T17:16:53.980Z,21.19
2023-04-02T17:21:58.932Z,21.21
2023-04-02T17:27:06.278Z,21.21
2023-04-02T17:32:15.781Z,21.20
2023-04-02T17:37:24.615Z,21.20
2023-04-02T17:42:36.370Z,21.23
2023-04-02T17:47:43.855Z,21.21
2023-04-02T17:52:48.615Z,21.24
2023-04-02T17:58:01.406Z,21.21
2023-04-02T18:03:16.937Z,21.28
2023-04-02T18:08:22.625Z,21.29
2023-04-02T18:13:33.437Z,21.33
2023-04-02T18:18:45.657Z,21.42
2023-04-02T18:23:55.272Z,21.35
2023-04-02T18:29:02.069Z,21.30
2023-04-02T18:34:36.970Z,21.29
2023-04-02T18:39:45.111Z,21.28
2023-04-02T18:44:55.456Z,21.35
2023-04-02T18:50:05.280Z,21.35
2023-04-02T18:55:14.573Z,21.35
2023-04-02T19:00:22.800Z,21.32
2023-04-02T19:05:29.350Z,21.33
2023-04-02T19:10:33.048Z,21.34
2023-04-02T19:15:40.977Z,21.33
2023-04-02T19:20:46.122Z,21.36
2023-04-02T19:25:57.472Z,21.35
2023-04-02T19:31:09.867Z,21.39
2023-04-02T19:36:21.408Z,21.38
2023-04-02T19:41:27.359Z,21.35
2023-04-02T19:46:31.583Z,21.37
2023-04-02T19:51:34.584Z,21.39
2023-04-02T19:56:37.492Z,21.40
2023-04-02T20:01:41.831Z,21.39
2023-04-02T20:06:44.743Z,21.41
2023-04-02T20:11:47.887Z,21.36
2023-04-02T20:16:52.107Z,21.39
2023-04-02T20:21:54.897Z,21.42
2023-04-02T20:26:57.817Z,21.45
2023-04-02T20:32:02.210Z,21.42
2023-04-02T20:37:05.090Z,21.44
2023-04-02T20:42:08.143Z,21.41
2023-04-02T20:47:12.360Z,21.40
2023-04-02T20:52:15.252Z,21.42
2023-04-02T20:57:19.784Z,21.39
2023-04-02T21:02:24.062Z,21.41
2023-04-02T21:07:26.854Z,21.43
2023-04-02T21:12:29.700Z,21.40
2023-04-02T21:17:34.039Z,21.43
2023-04-02T21:22:37.098Z,21.41
2023-04-02T21:27:39.877Z,21.42
2023-04-02T21:32:43.985Z,21.42
2023-04-02T21:37:46.807Z,21.42
2023-04-02T21:42:49.650Z,21.45
2023-04-02T21:47:53.847Z,21.44
2023-04-02T21:52:56.840Z,21.46
2023-04-02T21:57:59.757Z,21.47
2023-04-02T22:03:04.246Z,21.43
2023-04-02T22:08:07.119Z,21.45
2023-04-02T22:13:15.669Z,21.46
2023-04-02T22:18:19.947Z,21.57
2023-04-02T22:23:24.672Z,21.60
2023-04-02T22:28:27.910Z,21.64
2023-04-02T22:33:32.345Z,21.70
2023-04-02T22:38:35.223Z,21.76
2023-04-02T22:43:38.031Z,21.82
2023-04-02T22:48:42.399Z,21.93
2023-04-02T22:53:45.566Z,22.05
2023-04-02T22:58:48.374Z,22.13
2023-04-02T23:03:53.714Z,22.23
2023-04-02T23:08:56.791Z,22.31
2023-04-02T23:13:59.602Z,22.39
2023-04-02T23:19:03.784Z,22.47
2023-04-02T23:24:06.829Z,22.53
2023-04-02T23:29:11.437Z,22.60
2023-04-02T23:34:15.698Z,22.64
2023-04-02T23:39:20.096Z,22.71
2023-04-02T23:44:22.870Z,22.79
2023-04-02T23:49:27.251Z,22.80
2023-04-02T23:54:30.018Z,22.83
2023-04-02T23:59:32.974Z,22.81
